createdAt,value
2023-01-20T00:03:41.302Z,99707.72
2023-01-20T00:08:38.694Z,99707.56
2023-01-20T00:13:36.365Z,99720.09
2023-01-20T00:18:33.484Z,99715.56
2023-01-20T00:23:29.992Z,99714.66
2023-01-20T00:28:26.517Z,99718.94
2023-01-20T00:33:22.900Z,99730.03
2023-01-20T00:38:20.133Z,99735.81
2023-01-20T00:43:16.477Z,99735.69
2023-01-20T00:48:12.853Z,99731.44
2023-01-20T00:53:09.235Z,99731.59
2023-01-20T00:58:05.811Z,99736.69
2023-01-20T01:03:02.245Z,99730.75
2023-01-20T01:07:58.669Z,99732.13
2023-01-20T01:12:55.136Z,99740.59
2023-01-20T01:17:52.509Z,99750.94
2023-01-20T01:22:48.912Z,99756.03
2023-01-20T01:27:45.320Z,99759.50
2023-01-20T01:32:57.042Z,99764.94
2023-01-20T01:37:53.637Z,99772.28
2023-01-20T01:42:50.036Z,99771.28
2023-01-20T01:47:57.791Z,99775.16
2023-01-20T01:52:56.688Z,99784.28
2023-01-20T01:57:53.737Z,99784.03
2023-01-20T02:02:51.047Z,99788.34
2023-01-20T02:07:47.992Z,99794.25
2023-01-20T02:12:47.299Z,99800.47
2023-01-20T02:17:58.522Z,99805.91
2023-01-20T02:23:10.168Z,99804.16
2023-01-20T02:28:21.063Z,99809.94
2023-01-20T02:33:28.942Z,99809.94
2023-01-20T02:38:56.616Z,99818.81
2023-01-20T02:44:17.699Z,99818.03
2023-01-20T02:49:26.324Z,99833.16
2023-01-20T02:54:26.676Z,99839.25
2023-01-20T02:59:29.946Z,99839.13
2023-01-20T03:04:30.045Z,99845.31
2023-01-20T03:09:35.658Z,99846.09
2023-01-20T03:14:32.038Z,99838.19
2023-01-20T03:19:28.486Z,99844.53
2023-01-20T03:24:29.330Z,99857.34
2023-01-20T03:29:26.454Z,99860.31
2023-01-20T03:34:25.027Z,99865.22
2023-01-20T03:39:24.206Z,99872.16
2023-01-20T03:44:42.310Z,99881.03
2023-01-20T03:50:06.206Z,99882.72
2023-01-20T03:55:09.555Z,99890.06
2023-01-20T04:00:08.589Z,99886.19
2023-01-20T04:05:07.578Z,99896.47
2023-01-20T04:10:07.166Z,99893.66
2023-01-20T04:15:05.628Z,99898.31
2023-01-20T04:20:10.445Z,99894.03
2023-01-20T04:25:26.355Z,99908.50
2023-01-20T04:30:23.063Z,99904.31
2023-01-20T04:35:20.183Z,99911.94
2023-01-20T04:40:16.797Z,99911.78
2023-01-20T04:45:17.437Z,99904.44
2023-01-20T04:50:15.071Z,99901.47
2023-01-20T04:55:12.603Z,99904.84
2023-01-20T05:00:11.142Z,99912.47
2023-01-20T05:05:07.904Z,99909.97
2023-01-20T05:10:04.817Z,99916.31
2023-01-20T05:15:01.145Z,99929.31
2023-01-20T05:19:57.479Z,99936.09
2023-01-20T05:24:53.824Z,99933.56
2023-01-20T05:29:50.250Z,99925.91
2023-01-20T05:34:46.620Z,99943.50
2023-01-20T05:39:42.957Z,99946.72
2023-01-20T05:44:39.775Z,99964.13
2023-01-20T05:49:36.147Z,99953.38
2023-01-20T05:54:32.417Z,99955.28
2023-01-20T05:59:29.016Z,99963.13
2023-01-20T06:04:25.535Z,99965.53
2023-01-20T06:09:21.904Z,99968.81
2023-01-20T06:14:18.238Z,99975.03
2023-01-20T06:19:14.613Z,99969.81
2023-01-20T06:24:11.052Z,99977.38
2023-01-20T06:29:07.334Z,99983.38
2023-01-20T06:34:03.772Z,99985.41
2023-01-20T06:39:00.584Z,99985.81
2023-01-20T06:43:57.048Z,99987.66
2023-01-20T06:49:00.155Z,100003.22
2023-01-20T06:53:57.580Z,100009.97
2023-01-20T06:58:54.486Z,100017.22
2023-01-20T07:03:51.300Z,100022.88
2023-01-20T07:08:47.696Z,100030.72
2023-01-20T07:13:44.141Z,100033.34
2023-01-20T07:18:40.485Z,100040.38
2023-01-20T07:23:37.055Z,100042.81
2023-01-20T07:28:34.125Z,100047.66
2023-01-20T07:33:31.321Z,100058.44
2023-01-20T07:38:28.286Z,100055.97
2023-01-20T07:43:24.624Z,100067.75
2023-01-20T07:48:20.962Z,100077.22
2023-01-20T07:53:17.279Z,100079.75
2023-01-20T07:58:13.576Z,100092.59
2023-01-20T08:03:09.904Z,100101.00
2023-01-20T08:08:06.196Z,100102.69
2023-01-20T08:13:02.717Z,100115.13
2023-01-20T08:17:59.807Z,100128.81
2023-01-20T08:22:56.086Z,100135.28
2023-01-20T08:27:52.417Z,100138.03
2023-01-20T08:32:48.967Z,100139.88
2023-01-20T08:37:45.366Z,100149.56
2023-01-20T08:42:41.808Z,100152.06
2023-01-20T08:47:44.320Z,100154.41
2023-01-20T08:52:42.044Z,100163.22
2023-01-20T08:57:38.401Z,100174.84
2023-01-20T09:02:35.050Z,100169.38
2023-01-20T09:07:31.432Z,100169.16
2023-01-20T09:12:27.740Z,100172.72
2023-01-20T09:17:24.206Z,100179.53
2023-01-20T09:22:20.498Z,100183.59
2023-01-20T09:27:17.852Z,100178.91
2023-01-20T09:32:15.460Z,100187.13
2023-01-20T09:37:32.211Z,100182.53
2023-01-20T09:43:06.048Z,100186.00
2023-01-20T09:48:35.896Z,100191.41
2023-01-20T09:53:50.839Z,100194.66
2023-01-20T09:59:05.244Z,100194.53
2023-01-20T10:04:17.347Z,100200.53
2023-01-20T10:09:46.894Z,100197.63
2023-01-20T10:14:55.336Z,100202.97
2023-01-20T10:19:56.372Z,100204.84
2023-01-20T10:25:06.380Z,100206.56
2023-01-20T10:30:15.545Z,100209.34
2023-01-20T10:35:19.583Z,100212.56
2023-01-20T10:40:36.266Z,100212.94
2023-01-20T10:45:59.091Z,100207.88
2023-01-20T10:51:05.005Z,100210.66
2023-01-20T10:56:43.851Z,100226.09
2023-01-20T11:01:41.889Z,100216.56
2023-01-20T11:06:39.000Z,100224.97
2023-01-20T11:11:36.838Z,100226.16
2023-01-20T11:16:33.793Z,100224.91
2023-01-20T11:21:33.578Z,100234.78
2023-01-20T11:26:32.856Z,100237.41
2023-01-20T11:31:48.351Z,100241.44
2023-01-20T11:36:46.209Z,100245.88
2023-01-20T11:41:43.212Z,100256.88
2023-01-20T11:46:39.608Z,100255.03
2023-01-20T11:51:44.783Z,100255.09
2023-01-20T11:56:44.374Z,100263.63
2023-01-20T12:02:13.085Z,100262.41
2023-01-20T12:07:18.375Z,100261.38
2023-01-20T12:12:27.637Z,100262.81
2023-01-20T12:17:38.936Z,100272.97
2023-01-20T12:22:43.996Z,100278.63
2023-01-20T12:27:53.253Z,100286.59
2023-01-20T12:32:50.807Z,100287.03
2023-01-20T12:38:03.394Z,100301.06
2023-01-20T12:43:32.693Z,100300.91
2023-01-20T12:48:47.762Z,100310.84
2023-01-20T12:54:05.832Z,100318.38
2023-01-20T12:59:16.989Z,100311.50
2023-01-20T13:04:44.975Z,100319.78
2023-01-20T13:09:59.492Z,100331.84
2023-01-20T13:15:02.596Z,100335.91
2023-01-20T13:20:02.762Z,100341.16
2023-01-20T13:25:04.629Z,100347.94
2023-01-20T13:30:04.464Z,100346.72
2023-01-20T13:35:22.363Z,100351.84
2023-01-20T13:40:49.381Z,100354.28
2023-01-20T13:45:45.726Z,100362.66
2023-01-20T13:50:43.322Z,100366.91
2023-01-20T13:55:45.687Z,100372.25
2023-01-20T14:00:42.768Z,100381.81
2023-01-20T14:05:39.774Z,100379.13
2023-01-20T14:10:36.369Z,100391.25
2023-01-20T14:15:36.490Z,100393.53
2023-01-20T14:20:32.883Z,100400.81
2023-01-20T14:25:29.211Z,100404.22
2023-01-20T14:30:27.408Z,100411.47
2023-01-20T14:35:31.055Z,100415.00
2023-01-20T14:40:31.297Z,100418.69
2023-01-20T14:45:30.553Z,100428.00
2023-01-20T14:50:27.356Z,100430.41
2023-01-20T14:55:35.475Z,100437.63
2023-01-20T15:00:33.924Z,100446.22
2023-01-20T15:05:33.307Z,100453.03
2023-01-20T15:10:29.685Z,100449.00
2023-01-20T15:15:29.666Z,100456.09
2023-01-20T15:20:27.756Z,100470.41
2023-01-20T15:25:24.701Z,100469.34
2023-01-20T15:30:27.821Z,100480.41
2023-01-20T15:35:27.684Z,100474.94
2023-01-20T15:40:24.871Z,100489.09
2023-01-20T15:45:21.219Z,100499.69
2023-01-20T15:50:21.506Z,100500.38
2023-01-20T15:55:19.370Z,100516.69
2023-01-20T16:00:21.432Z,100523.97
2023-01-20T16:05:18.091Z,100533.91
2023-01-20T16:10:17.154Z,100548.00
2023-01-20T16:15:18.214Z,100562.38
2023-01-20T16:20:23.604Z,100565.31
2023-01-20T16:25:20.454Z,100579.75
2023-01-20T16:30:20.024Z,100587.63
2023-01-20T16:35:18.071Z,100594.97
2023-01-20T16:40:17.915Z,100610.06
2023-01-20T16:45:28.654Z,100614.69
2023-01-20T16:50:28.150Z,100624.44
2023-01-20T16:55:24.689Z,100629.78
2023-01-20T17:00:21.621Z,100641.41
2023-01-20T17:05:25.855Z,100649.75
2023-01-20T17:10:22.349Z,100659.75
2023-01-20T17:15:19.218Z,100667.19
2023-01-20T17:20:17.520Z,100672.50
2023-01-20T17:25:16.794Z,100677.13
2023-01-20T17:30:15.192Z,100680.66
2023-01-20T17:35:11.726Z,100689.13
2023-01-20T17:40:10.826Z,100692.72
2023-01-20T17:45:07.651Z,100706.97
2023-01-20T17:50:04.663Z,100715.84
2023-01-20T17:55:01.066Z,100716.81
2023-01-20T17:59:57.365Z,100731.53
2023-01-20T18:04:53.681Z,100725.03
2023-01-20T18:09:50.053Z,100743.41
2023-01-20T18:14:46.420Z,100745.41
2023-01-20T18:19:42.920Z,100750.72
2023-01-20T18:24:39.215Z,100759.50
2023-01-20T18:29:36.233Z,100768.22
2023-01-20T18:34:32.700Z,100772.78
2023-01-20T18:39:29.566Z,100787.50
2023-01-20T18:44:25.928Z,100793.31
2023-01-20T18:49:22.211Z,100795.03
2023-01-20T18:54:20.847Z,100804.56
2023-01-20T18:59:17.492Z,100815.94
2023-01-20T19:04:13.993Z,100827.44
2023-01-20T19:09:11.117Z,100829.31
2023-01-20T19:14:11.034Z,100838.22
2023-01-20T19:19:07.949Z,100837.28
2023-01-20T19:24:07.506Z,100855.69
2023-01-20T19:29:06.915Z,100862.63
2023-01-20T19:34:03.748Z,100866.25
2023-01-20T19:39:00.951Z,100862.88
2023-01-20T19:43:59.559Z,100867.06
2023-01-20T19:48:58.126Z,100877.63
2023-01-20T19:53:59.584Z,100888.13
2023-01-20T19:58:56.477Z,100890.81
2023-01-20T20:03:56.570Z,100900.28
2023-01-20T20:08:55.711Z,100906.25
2023-01-20T20:13:56.592Z,100921.00
2023-01-20T20:18:54.028Z,100918.41
2023-01-20T20:23:58.959Z,100921.97
2023-01-20T20:28:55.917Z,100935.81
2023-01-20T20:33:52.222Z,100931.44
2023-01-20T20:38:51.389Z,100943.72
2023-01-20T20:43:48.226Z,100946.38
2023-01-20T20:48:45.016Z,100949.19
2023-01-20T20:53:42.494Z,100958.69
2023-01-20T20:58:51.812Z,100972.66
2023-01-20T21:03:57.707Z,100973.59
2023-01-20T21:08:54.622Z,100990.13
2023-01-20T21:13:52.195Z,100995.59
2023-01-20T21:18:50.185Z,101000.06
2023-01-20T21:23:54.905Z,101004.47
2023-01-20T21:28:51.364Z,101007.09
2023-01-20T21:33:53.463Z,101028.09
2023-01-20T21:38:50.818Z,101029.00
2023-01-20T21:44:06.741Z,101031.56
2023-01-20T21:49:22.180Z,101041.16
2023-01-20T21:54:19.047Z,101030.81
2023-01-20T21:59:15.564Z,101048.22
2023-01-20T22:04:11.982Z,101052.66
2023-01-20T22:09:08.387Z,101054.34
2023-01-20T22:14:04.882Z,101067.19
2023-01-20T22:19:01.268Z,101074.75
2023-01-20T22:23:57.620Z,101088.75
2023-01-20T22:28:53.966Z,101089.75
2023-01-20T22:33:52.217Z,101101.03
2023-01-20T22:38:50.130Z,101103.88
2023-01-20T22:43:48.002Z,101119.41
2023-01-20T22:48:44.680Z,101122.78
2023-01-20T22:53:41.722Z,101130.50
2023-01-20T22:58:38.346Z,101139.88
2023-01-20T23:03:34.789Z,101138.09
2023-01-20T23:08:32.271Z,101149.50
2023-01-20T23:13:28.918Z,101150.56
2023-01-20T23:18:26.185Z,101150.63
2023-01-20T23:23:24.085Z,101164.69
2023-01-20T23:28:20.389Z,101164.78
2023-01-20T23:33:16.721Z,101180.53
2023-01-20T23:38:13.011Z,101178.75
2023-01-20T23:43:09.303Z,101179.53
2023-01-20T23:48:05.928Z,101194.94
2023-01-20T23:53:02.216Z,101194.13
2023-01-20T23:57:58.570Z,101196.97
